createdAt,value
2023-04-26T00:01:07.401Z,4.97
2023-04-26T00:03:34.149Z,4.93
2023-04-26T00:06:03.714Z,4.85
2023-04-26T00:08:30.033Z,4.81
2023-04-26T00:10:56.432Z,4.84
2023-04-26T00:13:22.777Z,4.83
2023-04-26T00:15:49.107Z,4.73
2023-04-26T00:18:15.510Z,4.77
2023-04-26T00:20:42.025Z,4.73
2023-04-26T00:23:10.499Z,4.73
2023-04-26T00:25:37.325Z,4.69
2023-04-26T00:28:03.707Z,4.64
2023-04-26T00:30:30.109Z,4.66
2023-04-26T00:32:56.526Z,4.64
2023-04-26T00:35:22.965Z,4.62
2023-04-26T00:37:49.339Z,4.63
2023-04-26T00:40:17.186Z,4.62
2023-04-26T00:42:43.584Z,4.65
2023-04-26T00:45:10.059Z,4.65
2023-04-26T00:47:36.506Z,4.63
2023-04-26T00:50:03.643Z,4.63
2023-04-26T00:52:30.622Z,4.66
2023-04-26T00:54:57.094Z,4.65
2023-04-26T00:57:23.489Z,4.67
2023-04-26T00:59:49.905Z,4.66
2023-04-26T01:02:17.606Z,4.68
2023-04-26T01:04:45.308Z,4.69
2023-04-26T01:07:11.951Z,4.70
2023-04-26T01:09:38.346Z,4.74
2023-04-26T01:12:05.004Z,4.74
2023-04-26T01:14:31.366Z,4.76
2023-04-26T01:16:57.867Z,4.80
2023-04-26T01:19:25.546Z,4.81
2023-04-26T01:21:51.938Z,4.81
2023-04-26T01:24:18.322Z,4.84
2023-04-26T01:26:47.749Z,4.86
2023-04-26T01:29:14.730Z,4.85
2023-04-26T01:31:41.199Z,4.83
2023-04-26T01:34:07.551Z,4.85
2023-04-26T01:36:33.956Z,4.87
2023-04-26T01:39:00.498Z,4.87
2023-04-26T01:41:27.034Z,4.86
2023-04-26T01:43:53.595Z,4.89
2023-04-26T01:46:20.331Z,4.86
2023-04-26T01:48:47.254Z,4.88
2023-04-26T01:51:13.773Z,4.88
2023-04-26T01:53:40.256Z,4.83
2023-04-26T01:56:06.783Z,4.83
2023-04-26T01:58:33.164Z,4.83
2023-04-26T02:01:06.214Z,4.82
2023-04-26T02:03:32.614Z,4.89
2023-04-26T02:05:59.044Z,4.88
2023-04-26T02:08:25.428Z,4.84
2023-04-26T02:10:51.752Z,4.87
2023-04-26T02:13:19.396Z,4.86
2023-04-26T02:15:49.219Z,4.81
2023-04-26T02:18:15.829Z,4.78
2023-04-26T02:20:45.753Z,4.86
2023-04-26T02:23:12.512Z,4.82
2023-04-26T02:25:38.887Z,4.83
2023-04-26T02:28:05.875Z,4.83
2023-04-26T02:30:32.324Z,4.78
2023-04-26T02:32:59.005Z,4.77
2023-04-26T02:35:25.439Z,4.79
2023-04-26T02:37:52.366Z,4.80
2023-04-26T02:40:19.113Z,4.82
2023-04-26T02:42:45.525Z,4.82
2023-04-26T02:45:12.180Z,4.81
2023-04-26T02:47:38.788Z,4.83
2023-04-26T02:50:09.058Z,4.80
2023-04-26T02:52:36.111Z,4.80
2023-04-26T02:55:05.733Z,4.79
2023-04-26T02:57:32.314Z,4.82
2023-04-26T02:59:58.967Z,4.79
2023-04-26T03:02:25.707Z,4.81
2023-04-26T03:04:52.254Z,4.75
2023-04-26T03:07:18.627Z,4.79
2023-04-26T03:09:44.943Z,4.77
2023-04-26T03:12:11.778Z,4.76
2023-04-26T03:14:38.175Z,4.79
2023-04-26T03:17:04.527Z,4.80
2023-04-26T03:19:30.871Z,4.77
2023-04-26T03:21:57.341Z,4.80
2023-04-26T03:24:23.877Z,4.81
2023-04-26T03:26:52.580Z,4.82
2023-04-26T03:29:19.785Z,4.76
2023-04-26T03:31:46.195Z,4.75
2023-04-26T03:34:12.651Z,4.77
2023-04-26T03:36:39.054Z,4.76
2023-04-26T03:39:06.240Z,4.80
2023-04-26T03:41:33.557Z,4.78
2023-04-26T03:44:00.016Z,4.74
2023-04-26T03:46:26.537Z,4.74
2023-04-26T03:48:53.226Z,4.79
2023-04-26T03:51:19.828Z,4.77
2023-04-26T03:53:48.621Z,4.72
2023-04-26T03:56:14.952Z,4.73
2023-04-26T03:58:42.154Z,4.76
2023-04-26T04:01:08.764Z,4.74
2023-04-26T04:03:35.830Z,4.77
2023-04-26T04:06:03.805Z,4.75
2023-04-26T04:08:30.582Z,4.74
2023-04-26T04:10:56.990Z,4.75
2023-04-26T04:13:23.353Z,4.75
2023-04-26T04:15:49.766Z,4.75
2023-04-26T04:18:16.202Z,4.75
2023-04-26T04:20:42.595Z,4.72
2023-04-26T04:23:09.881Z,4.66
2023-04-26T04:25:36.642Z,4.67
2023-04-26T04:28:03.448Z,4.68
2023-04-26T04:30:30.642Z,4.66
2023-04-26T04:33:00.880Z,4.63
2023-04-26T04:35:29.182Z,4.66
2023-04-26T04:37:58.550Z,4.66
2023-04-26T04:40:25.557Z,4.70
2023-04-26T04:42:53.567Z,4.73
2023-04-26T04:45:54.182Z,4.72
2023-04-26T04:48:21.352Z,4.70
2023-04-26T04:50:47.902Z,4.77
2023-04-26T04:53:14.363Z,4.77
2023-04-26T04:55:41.122Z,4.79
2023-04-26T04:58:07.496Z,4.76
2023-04-26T05:00:34.212Z,4.82
2023-04-26T05:03:00.854Z,4.82
2023-04-26T05:05:27.517Z,4.82
2023-04-26T05:07:53.868Z,4.86
2023-04-26T05:10:20.253Z,4.87
2023-04-26T05:12:46.599Z,4.84
2023-04-26T05:15:12.969Z,4.82
2023-04-26T05:17:39.396Z,4.90
2023-04-26T05:20:07.923Z,4.92
2023-04-26T05:22:36.899Z,4.80
2023-04-26T05:25:04.601Z,4.81
2023-04-26T05:27:31.076Z,4.77
2023-04-26T05:29:57.469Z,4.84
2023-04-26T05:32:23.836Z,4.88
2023-04-26T05:34:50.166Z,4.88
2023-04-26T05:37:17.197Z,4.89
2023-04-26T05:39:44.287Z,4.92
2023-04-26T05:42:10.709Z,5.02
2023-04-26T05:44:37.080Z,5.02
2023-04-26T05:47:03.636Z,5.07
2023-04-26T05:49:29.947Z,5.10
2023-04-26T05:51:58.798Z,5.19
2023-04-26T05:54:25.180Z,5.29
2023-04-26T05:56:51.533Z,5.42
2023-04-26T05:59:17.932Z,5.56
2023-04-26T06:01:44.379Z,5.49
2023-04-26T06:04:11.110Z,5.37
2023-04-26T06:06:38.027Z,5.45
2023-04-26T06:09:04.712Z,5.38
2023-04-26T06:11:31.432Z,5.39
2023-04-26T06:13:57.777Z,5.51
2023-04-26T06:16:24.306Z,5.56
2023-04-26T06:18:50.940Z,5.59
2023-04-26T06:21:17.256Z,5.55
2023-04-26T06:23:43.643Z,5.53
2023-04-26T06:26:09.991Z,5.54
2023-04-26T06:28:36.438Z,5.58
2023-04-26T06:31:02.879Z,5.69
2023-04-26T06:33:29.245Z,5.77
2023-04-26T06:35:55.605Z,5.87
2023-04-26T06:38:21.978Z,5.96
2023-04-26T06:40:48.359Z,5.93
2023-04-26T06:43:14.715Z,5.93
2023-04-26T06:45:42.191Z,5.89
2023-04-26T06:48:09.992Z,5.89
2023-04-26T06:50:40.043Z,6.03
2023-04-26T06:53:07.013Z,6.06
2023-04-26T06:55:33.862Z,6.41
2023-04-26T06:58:00.383Z,6.46
2023-04-26T07:00:26.816Z,6.33
2023-04-26T07:02:53.267Z,6.22
2023-04-26T07:05:19.753Z,6.30
2023-04-26T07:07:46.199Z,6.47
2023-04-26T07:10:13.033Z,6.61
2023-04-26T07:12:39.498Z,6.30
2023-04-26T07:15:09.525Z,6.19
2023-04-26T07:17:36.234Z,6.10
2023-04-26T07:20:02.964Z,6.37
2023-04-26T07:22:29.413Z,6.26
2023-04-26T07:24:55.873Z,6.25
2023-04-26T07:27:22.246Z,5.91
2023-04-26T07:29:48.925Z,6.15
2023-04-26T07:32:15.410Z,6.41
2023-04-26T07:34:41.960Z,6.35
2023-04-26T07:37:08.367Z,6.27
2023-04-26T07:39:35.204Z,6.44
2023-04-26T07:42:01.656Z,6.46
2023-04-26T07:44:28.184Z,6.50
2023-04-26T07:46:54.591Z,6.45
2023-04-26T07:49:20.989Z,6.44
2023-04-26T07:51:48.894Z,6.50
2023-04-26T07:54:15.260Z,6.39
2023-04-26T07:56:41.678Z,6.40
2023-04-26T07:59:08.488Z,6.34
2023-04-26T08:01:34.835Z,6.35
2023-04-26T08:04:01.978Z,6.31
2023-04-26T08:06:29.371Z,6.57
2023-04-26T08:08:56.301Z,6.64
2023-04-26T08:11:22.874Z,6.53
2023-04-26T08:13:49.350Z,6.36
2023-04-26T08:16:15.959Z,6.21
2023-04-26T08:18:44.084Z,6.08
2023-04-26T08:21:12.670Z,6.14
2023-04-26T08:23:39.215Z,6.02
2023-04-26T08:26:06.749Z,5.99
2023-04-26T08:28:33.305Z,5.82
2023-04-26T08:30:59.722Z,5.88
2023-04-26T08:33:26.327Z,5.85
2023-04-26T08:35:52.832Z,5.94
2023-04-26T08:38:19.258Z,6.04
2023-04-26T08:40:46.074Z,5.98
2023-04-26T08:43:12.573Z,6.07
2023-04-26T08:45:39.673Z,6.19
2023-04-26T08:48:07.258Z,6.33
2023-04-26T08:50:33.794Z,6.21
2023-04-26T08:53:00.201Z,6.34
2023-04-26T08:55:26.692Z,6.19
2023-04-26T08:57:53.057Z,6.25
2023-04-26T09:00:19.770Z,6.38
2023-04-26T09:02:47.396Z,6.12
2023-04-26T09:05:14.367Z,6.19
2023-04-26T09:07:47.534Z,6.38
2023-04-26T09:10:14.648Z,6.33
2023-04-26T09:12:41.255Z,6.28
2023-04-26T09:15:07.936Z,6.37
2023-04-26T09:17:36.670Z,6.44
2023-04-26T09:20:17.674Z,6.32
2023-04-26T09:22:44.064Z,6.23
2023-04-26T09:25:11.286Z,6.32
2023-04-26T09:27:39.111Z,6.55
2023-04-26T09:30:07.707Z,6.43
2023-04-26T09:32:51.203Z,6.37
2023-04-26T09:35:28.082Z,6.54
2023-04-26T09:38:00.324Z,6.55
2023-04-26T09:40:29.573Z,6.45
2023-04-26T09:42:59.051Z,6.35
2023-04-26T09:45:26.258Z,6.27
2023-04-26T09:47:52.763Z,6.41
2023-04-26T09:50:26.074Z,6.71
2023-04-26T09:52:52.448Z,6.81
2023-04-26T09:55:34.993Z,6.58
2023-04-26T09:58:11.414Z,6.77
2023-04-26T10:00:38.536Z,6.69
2023-04-26T10:03:05.807Z,6.72
2023-04-26T10:05:34.003Z,6.51
2023-04-26T10:08:00.713Z,6.37
2023-04-26T10:10:27.235Z,6.61
2023-04-26T10:12:53.557Z,6.59
2023-04-26T10:15:19.977Z,6.40
2023-04-26T10:17:46.458Z,6.28
2023-04-26T10:20:13.386Z,5.96
2023-04-26T10:22:41.137Z,6.10
2023-04-26T10:25:09.063Z,6.16
2023-04-26T10:27:45.094Z,6.27
2023-04-26T10:30:13.874Z,6.41
2023-04-26T10:32:53.083Z,6.67
2023-04-26T10:35:20.085Z,6.92
2023-04-26T10:38:01.907Z,7.61
2023-04-26T10:40:39.087Z,7.78
2023-04-26T10:43:11.973Z,7.77
2023-04-26T10:45:38.667Z,7.94
2023-04-26T10:48:21.400Z,7.61
2023-04-26T10:51:08.297Z,7.64
2023-04-26T10:53:34.641Z,7.65
2023-04-26T10:56:01.015Z,7.47
2023-04-26T10:58:30.529Z,7.44
2023-04-26T11:01:13.402Z,7.14
2023-04-26T11:03:43.720Z,7.41
2023-04-26T11:06:13.698Z,7.37
2023-04-26T11:08:40.082Z,7.37
2023-04-26T11:11:15.561Z,7.30
2023-04-26T11:13:42.512Z,7.30
2023-04-26T11:16:09.838Z,7.28
2023-04-26T11:18:37.064Z,7.31
2023-04-26T11:21:03.768Z,7.34
2023-04-26T11:23:30.398Z,7.53
2023-04-26T11:26:00.347Z,7.43
2023-04-26T11:28:26.786Z,7.13
2023-04-26T11:30:53.168Z,6.89
2023-04-26T11:33:22.137Z,6.93
2023-04-26T11:35:52.141Z,7.49
2023-04-26T11:38:18.893Z,7.87
2023-04-26T11:40:45.510Z,7.92
2023-04-26T11:43:13.776Z,7.78
2023-04-26T11:45:40.271Z,7.97
2023-04-26T11:48:08.737Z,8.06
2023-04-26T11:50:35.301Z,8.29
2023-04-26T11:53:02.601Z,8.39
2023-04-26T11:55:30.496Z,8.66
2023-04-26T11:57:57.327Z,9.34
2023-04-26T12:00:25.808Z,9.80
2023-04-26T12:02:53.266Z,10.06
2023-04-26T12:05:23.717Z,10.09
2023-04-26T12:07:51.572Z,9.74
2023-04-26T12:10:18.543Z,9.84
2023-04-26T12:12:47.650Z,10.03
2023-04-26T12:15:15.611Z,9.70
2023-04-26T12:17:51.646Z,8.99
2023-04-26T12:20:18.365Z,9.22
2023-04-26T12:23:03.764Z,9.96
2023-04-26T12:25:30.382Z,10.29
2023-04-26T12:27:57.060Z,10.69
2023-04-26T12:30:23.771Z,10.50
2023-04-26T12:32:50.223Z,10.14
2023-04-26T12:35:16.782Z,9.48
2023-04-26T12:37:43.409Z,9.22
2023-04-26T12:40:10.524Z,9.04
2023-04-26T12:42:37.321Z,9.01
2023-04-26T12:45:04.021Z,9.00
2023-04-26T12:47:31.372Z,9.36
2023-04-26T12:50:01.127Z,9.99
2023-04-26T12:52:28.163Z,10.43
2023-04-26T12:54:54.515Z,10.73
2023-04-26T12:57:21.774Z,10.57
2023-04-26T12:59:50.438Z,10.84
2023-04-26T13:02:17.175Z,10.77
2023-04-26T13:04:43.919Z,10.27
2023-04-26T13:07:10.890Z,10.23
2023-04-26T13:09:37.264Z,10.07
2023-04-26T13:12:04.111Z,10.34
2023-04-26T13:14:30.543Z,9.56
2023-04-26T13:16:56.960Z,9.25
2023-04-26T13:19:24.110Z,9.69
2023-04-26T13:21:52.430Z,10.31
2023-04-26T13:24:19.688Z,10.49
2023-04-26T13:26:46.146Z,10.21
2023-04-26T13:29:12.669Z,9.85
2023-04-26T13:31:40.024Z,10.44
2023-04-26T13:34:07.099Z,10.42
2023-04-26T13:36:33.680Z,10.05
2023-04-26T13:39:00.183Z,10.29
2023-04-26T13:41:26.728Z,10.48
2023-04-26T13:43:53.369Z,10.83
2023-04-26T13:46:19.820Z,10.44
2023-04-26T13:48:46.312Z,9.93
2023-04-26T13:51:12.778Z,9.52
2023-04-26T13:53:39.297Z,9.11
2023-04-26T13:56:05.821Z,8.99
2023-04-26T13:58:32.349Z,8.94
2023-04-26T14:00:58.696Z,9.22
2023-04-26T14:03:26.646Z,9.63
2023-04-26T14:05:53.295Z,10.03
2023-04-26T14:08:19.658Z,10.17
2023-04-26T14:10:46.088Z,10.15
2023-04-26T14:13:12.794Z,9.98
2023-04-26T14:15:39.153Z,10.37
2023-04-26T14:18:05.673Z,10.22
2023-04-26T14:20:33.174Z,10.30
2023-04-26T14:22:59.570Z,10.66
2023-04-26T14:25:27.108Z,10.79
2023-04-26T14:27:53.831Z,10.49
2023-04-26T14:30:20.899Z,10.49
2023-04-26T14:32:47.360Z,10.54
2023-04-26T14:35:13.850Z,10.83
2023-04-26T14:37:42.888Z,11.25
2023-04-26T14:40:09.394Z,11.10
2023-04-26T14:42:36.304Z,11.27
2023-04-26T14:45:02.694Z,11.50
2023-04-26T14:47:29.459Z,10.58
2023-04-26T14:49:56.900Z,10.56
2023-04-26T14:52:27.012Z,10.61
2023-04-26T14:54:53.613Z,10.99
2023-04-26T14:57:19.983Z,10.60
2023-04-26T14:59:46.422Z,10.51
2023-04-26T15:02:12.889Z,10.52
2023-04-26T15:04:39.513Z,9.94
2023-04-26T15:07:06.566Z,9.55
2023-04-26T15:09:32.964Z,9.54
2023-04-26T15:11:59.489Z,9.43
2023-04-26T15:14:26.080Z,8.95
2023-04-26T15:16:52.450Z,8.97
2023-04-26T15:19:19.074Z,9.07
2023-04-26T15:21:45.449Z,8.90
2023-04-26T15:24:11.820Z,8.64
2023-04-26T15:26:38.313Z,8.66
2023-04-26T15:29:04.827Z,8.52
2023-04-26T15:31:31.427Z,8.33
2023-04-26T15:33:58.511Z,8.63
2023-04-26T15:36:24.898Z,8.66
2023-04-26T15:38:51.819Z,8.78
2023-04-26T15:41:18.206Z,8.95
2023-04-26T15:43:44.575Z,8.91
2023-04-26T15:46:13.168Z,9.08
2023-04-26T15:48:41.423Z,9.05
2023-04-26T15:51:07.779Z,8.64
2023-04-26T15:53:34.158Z,8.43
2023-04-26T15:56:01.236Z,8.41
2023-04-26T15:58:27.581Z,8.27
2023-04-26T16:00:53.935Z,8.08
2023-04-26T16:03:20.700Z,8.05
2023-04-26T16:05:48.006Z,7.98
2023-04-26T16:08:17.658Z,8.00
2023-04-26T16:10:50.901Z,7.96
2023-04-26T16:13:17.526Z,7.88
2023-04-26T16:15:45.370Z,8.02
2023-04-26T16:18:11.870Z,8.19
2023-04-26T16:20:38.251Z,7.90
2023-04-26T16:23:04.600Z,7.87
2023-04-26T16:25:31.764Z,7.88
2023-04-26T16:27:58.209Z,7.77
2023-04-26T16:30:24.569Z,7.81
2023-04-26T16:32:51.848Z,7.92
2023-04-26T16:35:18.283Z,7.88
2023-04-26T16:37:44.803Z,7.86
2023-04-26T16:40:11.570Z,7.76
2023-04-26T16:42:41.960Z,7.81
2023-04-26T16:45:08.666Z,7.78
2023-04-26T16:47:35.092Z,7.71
2023-04-26T16:50:02.144Z,7.68
2023-04-26T16:52:28.532Z,7.73
2023-04-26T16:54:54.985Z,7.63
2023-04-26T16:57:21.346Z,7.56
2023-04-26T16:59:47.805Z,7.59
2023-04-26T17:02:14.279Z,7.49
2023-04-26T17:04:41.305Z,7.36
2023-04-26T17:07:07.817Z,7.38
2023-04-26T17:09:34.901Z,7.38
2023-04-26T17:12:02.855Z,7.30
2023-04-26T17:14:29.205Z,7.34
2023-04-26T17:16:55.630Z,7.35
2023-04-26T17:19:21.981Z,7.42
2023-04-26T17:21:48.542Z,7.41
2023-04-26T17:24:14.978Z,7.42
2023-04-26T17:26:41.874Z,7.33
2023-04-26T17:29:08.219Z,7.23
2023-04-26T17:31:34.631Z,7.24
2023-04-26T17:34:03.290Z,7.22
2023-04-26T17:36:31.912Z,7.27
2023-04-26T17:38:58.279Z,7.17
2023-04-26T17:41:24.641Z,7.14
2023-04-26T17:43:51.035Z,7.02
2023-04-26T17:46:17.406Z,6.94
2023-04-26T17:48:43.799Z,6.90
2023-04-26T17:51:10.364Z,6.80
2023-04-26T17:53:36.809Z,6.80
2023-04-26T17:56:07.161Z,6.76
2023-04-26T17:58:33.978Z,6.70
2023-04-26T18:01:00.578Z,6.68
2023-04-26T18:03:29.608Z,6.61
2023-04-26T18:05:56.145Z,6.60
2023-04-26T18:08:22.539Z,6.49
2023-04-26T18:10:50.413Z,6.50
2023-04-26T18:13:16.946Z,6.41
2023-04-26T18:15:43.453Z,6.30
2023-04-26T18:18:10.132Z,6.32
2023-04-26T18:20:39.228Z,6.28
2023-04-26T18:23:05.593Z,6.21
2023-04-26T18:25:31.938Z,6.17
2023-04-26T18:27:58.281Z,6.09
2023-04-26T18:30:24.653Z,6.08
2023-04-26T18:32:51.471Z,5.98
2023-04-26T18:35:17.873Z,5.95
2023-04-26T18:37:44.321Z,5.97
2023-04-26T18:40:11.809Z,5.90
2023-04-26T18:42:38.888Z,5.85
2023-04-26T18:45:06.230Z,5.79
2023-04-26T18:47:32.650Z,5.86
2023-04-26T18:49:59.088Z,5.85
2023-04-26T18:52:25.468Z,5.78
2023-04-26T18:54:51.799Z,5.75
2023-04-26T18:57:22.125Z,5.73
2023-04-26T18:59:51.267Z,5.76
2023-04-26T19:05:43.095Z,5.64
2023-04-26T19:17:34.899Z,5.44
2023-04-26T19:20:01.239Z,5.37
2023-04-26T19:22:27.619Z,5.34
2023-04-26T19:24:54.024Z,5.31
2023-04-26T19:27:20.562Z,5.24
2023-04-26T19:29:47.011Z,5.23
2023-04-26T19:32:14.470Z,5.23
2023-04-26T19:34:41.373Z,5.33
2023-04-26T19:37:07.977Z,5.29
2023-04-26T19:39:34.534Z,5.21
2023-04-26T19:42:01.584Z,5.18
2023-04-26T19:44:27.988Z,5.16
2023-04-26T19:46:54.884Z,5.12
2023-04-26T19:49:21.984Z,5.06
2023-04-26T19:51:48.625Z,5.03
2023-04-26T19:54:17.043Z,4.94
2023-04-26T19:56:43.506Z,4.93
2023-04-26T19:59:35.331Z,4.84
2023-04-26T20:02:03.104Z,4.81
2023-04-26T20:04:29.600Z,4.81
2023-04-26T20:06:57.340Z,4.74
2023-04-26T20:09:23.714Z,4.81
2023-04-26T20:11:50.109Z,4.75
2023-04-26T20:14:16.575Z,4.70
2023-04-26T20:16:43.032Z,4.71
2023-04-26T20:19:10.253Z,4.72
2023-04-26T20:21:37.128Z,4.70
2023-04-26T20:24:04.133Z,4.70
2023-04-26T20:26:30.589Z,4.67
2023-04-26T20:28:57.412Z,4.65
2023-04-26T20:31:24.271Z,4.61
2023-04-26T20:33:50.723Z,4.59
2023-04-26T20:36:17.733Z,4.61
2023-04-26T20:38:44.174Z,4.60
2023-04-26T20:41:10.941Z,4.61
2023-04-26T20:43:37.332Z,4.59
2023-04-26T20:46:05.319Z,4.59
2023-04-26T20:48:31.688Z,4.62
2023-04-26T20:50:58.766Z,4.55
2023-04-26T20:53:25.162Z,4.55
2023-04-26T20:56:16.579Z,4.53
2023-04-26T20:58:42.966Z,4.40
2023-04-26T21:01:09.791Z,4.38
2023-04-26T21:03:36.491Z,4.38
2023-04-26T21:06:02.999Z,4.32
2023-04-26T21:08:29.429Z,4.30
2023-04-26T21:10:55.957Z,4.25
2023-04-26T21:13:23.722Z,4.19
2023-04-26T21:15:50.226Z,4.23
2023-04-26T21:18:16.712Z,4.21
2023-04-26T21:20:43.183Z,4.20
2023-04-26T21:23:09.700Z,4.19
2023-04-26T21:25:36.859Z,4.18
2023-04-26T21:28:03.345Z,4.16
2023-04-26T21:30:29.873Z,4.13
2023-04-26T21:32:56.419Z,4.16
2023-04-26T21:35:22.970Z,4.13
2023-04-26T21:37:49.410Z,4.09
2023-04-26T21:40:15.939Z,4.09
2023-04-26T21:42:46.596Z,4.09
2023-04-26T21:45:17.956Z,4.03
2023-04-26T21:47:44.403Z,3.99
2023-04-26T21:50:10.958Z,4.02
2023-04-26T21:52:37.477Z,4.01
2023-04-26T21:55:04.230Z,3.97
2023-04-26T21:57:30.828Z,3.97
2023-04-26T21:59:57.319Z,3.97
2023-04-26T22:02:24.374Z,3.94
2023-04-26T22:04:50.976Z,3.90
2023-04-26T22:07:17.501Z,3.82
2023-04-26T22:09:43.928Z,3.84
2023-04-26T22:12:10.448Z,3.80
2023-04-26T22:14:36.972Z,3.83
2023-04-26T22:17:03.787Z,3.78
2023-04-26T22:19:30.760Z,3.74
2023-04-26T22:21:57.288Z,3.73
2023-04-26T22:24:23.819Z,3.68
2023-04-26T22:26:50.234Z,3.71
2023-04-26T22:29:16.708Z,3.72
2023-04-26T22:31:43.198Z,3.69
2023-04-26T22:34:09.737Z,3.67
2023-04-26T22:36:36.308Z,3.71
2023-04-26T22:39:02.759Z,3.67
2023-04-26T22:41:29.192Z,3.65
2023-04-26T22:43:55.747Z,3.67
2023-04-26T22:46:22.242Z,3.65
2023-04-26T22:48:48.669Z,3.60
2023-04-26T22:51:15.390Z,3.63
2023-04-26T22:53:41.812Z,3.61
2023-04-26T22:56:08.390Z,3.60
2023-04-26T22:58:34.820Z,3.61
2023-04-26T23:01:01.298Z,3.65
2023-04-26T23:03:27.919Z,3.67
2023-04-26T23:05:54.640Z,3.62
2023-04-26T23:08:21.412Z,3.58
2023-04-26T23:10:47.859Z,3.47
2023-04-26T23:13:14.714Z,3.52
2023-04-26T23:15:42.015Z,3.45
2023-04-26T23:18:08.472Z,3.39
2023-04-26T23:20:34.959Z,3.34
2023-04-26T23:23:01.616Z,3.36
2023-04-26T23:25:28.041Z,3.37
2023-04-26T23:27:54.572Z,3.36
2023-04-26T23:30:21.239Z,3.37
2023-04-26T23:32:47.821Z,3.39
2023-04-26T23:35:14.333Z,3.39
2023-04-26T23:37:40.981Z,3.36
2023-04-26T23:40:09.375Z,3.37
2023-04-26T23:42:36.683Z,3.37
2023-04-26T23:45:03.837Z,3.34
2023-04-26T23:47:30.968Z,3.34
2023-04-26T23:49:57.499Z,3.34
2023-04-26T23:52:23.924Z,3.30
2023-04-26T23:54:50.484Z,3.34
2023-04-26T23:57:16.924Z,3.31
2023-04-26T23:59:43.337Z,3.32
